N912CF KSAV-KABE
Flight info
| Callsign | N912CF |
|---|---|
| Flight time | N/A |
| Altitude | 37000 |
| Route | JROSS FLO FAY COLIN TOWIN |
| Aircraft | C700/M-SBDGHM1RWXY/LB2 |
Departure
| Time | 2026-04-28 21:33 |
|---|---|
| Airport | Savannah Hilton Head International Airport (KSAV) |
Arrival
| Time | N/A |
|---|---|
| Airport | Lehigh Valley International Airport (KABE) |
| Time | Latitude | Longitude | Altitude | Speed | Heading |
|---|---|---|---|---|---|
| 2026-04-28 21:12 | 32.11822 | -81.19724 | 32 ft | 0 kts | 130° |
| 2026-04-28 21:26 | 32.11825 | -81.19728 | 32 ft | 2 kts | 130° |
| 2026-04-28 21:26 | 32.11829 | -81.19735 | 32 ft | 0 kts | 130° |
| 2026-04-28 21:27 | 32.11826 | -81.19729 | 32 ft | 2 kts | 119° |
| 2026-04-28 21:28 | 32.11842 | -81.19722 | 33 ft | 4 kts | 321° |
| 2026-04-28 21:28 | 32.11843 | -81.19723 | 33 ft | 2 kts | 321° |
| 2026-04-28 21:29 | 32.11889 | -81.19767 | 33 ft | 15 kts | 321° |
| 2026-04-28 21:29 | 32.11992 | -81.19808 | 36 ft | 17 kts | 359° |
| 2026-04-28 21:29 | 32.12120 | -81.19809 | 36 ft | 20 kts | 0° |
| 2026-04-28 21:29 | 32.12268 | -81.19810 | 37 ft | 23 kts | 359° |
| 2026-04-28 21:30 | 32.12429 | -81.19811 | 40 ft | 24 kts | 1° |
| 2026-04-28 21:30 | 32.12600 | -81.19812 | 41 ft | 26 kts | 358° |
| 2026-04-28 21:30 | 32.12793 | -81.19814 | 41 ft | 29 kts | 360° |
| 2026-04-28 21:30 | 32.12999 | -81.19816 | 40 ft | 26 kts | 359° |
| 2026-04-28 21:31 | 32.13182 | -81.19818 | 42 ft | 27 kts | 360° |
| 2026-04-28 21:31 | 32.13374 | -81.19819 | 44 ft | 26 kts | 359° |
| 2026-04-28 21:31 | 32.13510 | -81.19821 | 44 ft | 15 kts | 359° |
| 2026-04-28 21:31 | 32.13556 | -81.19890 | 46 ft | 9 kts | 271° |
| 2026-04-28 21:32 | 32.13556 | -81.19897 | 46 ft | 0 kts | 270° |
| 2026-04-28 21:32 | 32.13556 | -81.19925 | 47 ft | 6 kts | 269° |
| 2026-04-28 21:32 | 32.13553 | -81.19996 | 45 ft | 11 kts | 255° |
| 2026-04-28 21:33 | 32.13518 | -81.20015 | 48 ft | 0 kts | 179° |
| 2026-04-28 21:33 | 32.13246 | -81.20011 | 43 ft | 89 kts | 179° |
| 2026-04-28 21:33 | 32.12362 | -81.19998 | 386 ft | 150 kts | 182° |
| 2026-04-28 21:33 | 32.11204 | -81.20027 | 1310 ft | 184 kts | 181° |
| 2026-04-28 21:34 | 32.09892 | -81.20089 | 2087 ft | 189 kts | 184° |
| 2026-04-28 21:34 | 32.08491 | -81.20150 | 2851 ft | 211 kts | 183° |
| 2026-04-28 21:34 | 32.06866 | -81.20185 | 3029 ft | 248 kts | 182° |
| 2026-04-28 21:34 | 32.05162 | -81.19737 | 2969 ft | 260 kts | 153° |
| 2026-04-28 21:35 | 32.03968 | -81.18104 | 4038 ft | 272 kts | 112° |
| 2026-04-28 21:35 | 32.03690 | -81.15909 | 5742 ft | 272 kts | 86° |
| 2026-04-28 21:35 | 32.03795 | -81.13664 | 7390 ft | 278 kts | 83° |
| 2026-04-28 21:35 | 32.03934 | -81.11337 | 8800 ft | 290 kts | 83° |
| 2026-04-28 21:36 | 32.04100 | -81.08918 | 10203 ft | 301 kts | 83° |
| 2026-04-28 21:36 | 32.04292 | -81.06334 | 10939 ft | 338 kts | 82° |
| 2026-04-28 21:36 | 32.04517 | -81.03481 | 10971 ft | 369 kts | 82° |
| 2026-04-28 21:36 | 32.04769 | -81.00341 | 10978 ft | 392 kts | 82° |
| 2026-04-28 21:37 | 32.05028 | -80.97134 | 10982 ft | 396 kts | 82° |
| 2026-04-28 21:37 | 32.05293 | -80.93891 | 10985 ft | 398 kts | 82° |
| 2026-04-28 21:37 | 32.06158 | -80.90903 | 11761 ft | 376 kts | 51° |
| 2026-04-28 21:37 | 32.08052 | -80.89058 | 14117 ft | 339 kts | 21° |
| 2026-04-28 21:38 | 32.10206 | -80.88138 | 15970 ft | 329 kts | 13° |
| 2026-04-28 21:38 | 32.12427 | -80.87285 | 17135 ft | 341 kts | 15° |
| 2026-04-28 21:38 | 32.14647 | -80.86195 | 18425 ft | 350 kts | 21° |
| 2026-04-28 21:38 | 32.16830 | -80.84846 | 19518 ft | 358 kts | 24° |
| 2026-04-28 21:39 | 32.19066 | -80.83502 | 20593 ft | 363 kts | 21° |
| 2026-04-28 21:39 | 32.21382 | -80.82249 | 21646 ft | 369 kts | 20° |
| 2026-04-28 21:39 | 32.23733 | -80.80971 | 22657 ft | 376 kts | 21° |
| 2026-04-28 21:39 | 32.26113 | -80.79611 | 23643 ft | 383 kts | 22° |
| 2026-04-28 21:40 | 32.28532 | -80.78225 | 24480 ft | 389 kts | 21° |
| 2026-04-28 21:40 | 32.30991 | -80.76845 | 25362 ft | 394 kts | 21° |
| 2026-04-28 21:40 | 32.33455 | -80.75468 | 26230 ft | 399 kts | 21° |
| 2026-04-28 21:40 | 32.35984 | -80.74037 | 27047 ft | 405 kts | 21° |
| 2026-04-28 21:41 | 32.38544 | -80.72585 | 27846 ft | 411 kts | 21° |
| 2026-04-28 21:41 | 32.41146 | -80.71115 | 28644 ft | 416 kts | 21° |
| 2026-04-28 21:41 | 32.43779 | -80.69629 | 29454 ft | 421 kts | 21° |
| 2026-04-28 21:41 | 32.46441 | -80.68123 | 30239 ft | 427 kts | 21° |
| 2026-04-28 21:42 | 32.49142 | -80.66592 | 30903 ft | 433 kts | 21° |
| 2026-04-28 21:42 | 32.51873 | -80.65043 | 31546 ft | 438 kts | 21° |
| 2026-04-28 21:42 | 32.54635 | -80.63478 | 32153 ft | 443 kts | 20° |
| 2026-04-28 21:42 | 32.57432 | -80.61892 | 32749 ft | 448 kts | 20° |
| 2026-04-28 21:43 | 32.60253 | -80.60290 | 33343 ft | 452 kts | 20° |
| 2026-04-28 21:43 | 32.63052 | -80.58695 | 34163 ft | 450 kts | 20° |
| 2026-04-28 21:43 | 32.65871 | -80.57090 | 34898 ft | 448 kts | 19° |
| 2026-04-28 21:43 | 32.68670 | -80.55499 | 35645 ft | 445 kts | 19° |
| 2026-04-28 21:44 | 32.71453 | -80.53915 | 36340 ft | 442 kts | 18° |
| 2026-04-28 21:44 | 32.74218 | -80.52338 | 36979 ft | 440 kts | 18° |
| 2026-04-28 21:44 | 32.77005 | -80.50754 | 37110 ft | 450 kts | 18° |
| 2026-04-28 21:44 | 32.79868 | -80.49129 | 37114 ft | 462 kts | 18° |
| 2026-04-28 21:45 | 32.82798 | -80.47453 | 37119 ft | 473 kts | 19° |
| 2026-04-28 21:45 | 32.85797 | -80.45733 | 37129 ft | 483 kts | 19° |
| 2026-04-28 21:45 | 32.91915 | -80.42229 | 37134 ft | 489 kts | 19° |
| 2026-04-28 21:46 | 32.98021 | -80.38728 | 37115 ft | 485 kts | 18° |
| 2026-04-28 21:46 | 33.04124 | -80.35231 | 37108 ft | 489 kts | 18° |
| 2026-04-28 21:47 | 33.10271 | -80.31693 | 37110 ft | 491 kts | 19° |
| 2026-04-28 21:47 | 33.16409 | -80.28160 | 37113 ft | 488 kts | 18° |
| 2026-04-28 21:48 | 33.22517 | -80.24638 | 37117 ft | 487 kts | 18° |
| 2026-04-28 21:48 | 33.28640 | -80.21105 | 37119 ft | 491 kts | 19° |
| 2026-04-28 21:49 | 33.34772 | -80.17555 | 37124 ft | 493 kts | 18° |
| 2026-04-28 21:49 | 33.40939 | -80.13983 | 37135 ft | 491 kts | 18° |
| 2026-04-28 21:50 | 33.47092 | -80.10413 | 37136 ft | 490 kts | 18° |
| 2026-04-28 21:50 | 33.53245 | -80.06838 | 37137 ft | 492 kts | 18° |
| 2026-04-28 21:51 | 33.59424 | -80.03241 | 37139 ft | 495 kts | 18° |
| 2026-04-28 21:51 | 33.65623 | -79.99625 | 37145 ft | 495 kts | 18° |
| 2026-04-28 21:52 | 33.71778 | -79.96031 | 37145 ft | 494 kts | 18° |
| 2026-04-28 21:52 | 33.77950 | -79.92421 | 37146 ft | 493 kts | 18° |
| 2026-04-28 21:53 | 33.84111 | -79.88813 | 37149 ft | 493 kts | 18° |
| 2026-04-28 21:53 | 33.90316 | -79.85172 | 37143 ft | 497 kts | 18° |
| 2026-04-28 21:54 | 33.96542 | -79.81512 | 37143 ft | 498 kts | 18° |
| 2026-04-28 21:54 | 34.02721 | -79.77873 | 37149 ft | 496 kts | 18° |
| 2026-04-28 21:55 | 34.08918 | -79.74220 | 37149 ft | 495 kts | 18° |
| 2026-04-28 21:55 | 34.15112 | -79.70562 | 37147 ft | 497 kts | 18° |
| 2026-04-28 21:56 | 34.21346 | -79.66848 | 37146 ft | 503 kts | 20° |
| 2026-04-28 21:56 | 34.24338 | -79.64544 | 37152 ft | 514 kts | 28° |
| 2026-04-28 21:56 | 34.27121 | -79.61795 | 37151 ft | 518 kts | 33° |
| 2026-04-28 21:57 | 34.32597 | -79.56154 | 37150 ft | 515 kts | 33° |
| 2026-04-28 21:57 | 34.38025 | -79.50570 | 37139 ft | 517 kts | 33° |